sensor_id;sensor_type;location;lat;lon;timestamp;pressure;altitude;pressure_sealevel;temperature;humidity
77159;BME280;66129;45.890;13.714;2023-02-15T00:01:31;102439.47;;;-0.73;86.80
77159;BME280;66129;45.890;13.714;2023-02-15T00:03:57;102440.50;;;-0.71;86.87
77159;BME280;66129;45.890;13.714;2023-02-15T00:06:23;102415.13;;;-0.82;85.79
77159;BME280;66129;45.890;13.714;2023-02-15T00:08:48;102479.59;;;-0.47;86.02
77159;BME280;66129;45.890;13.714;2023-02-15T00:11:16;102425.00;;;-0.75;87.22
77159;BME280;66129;45.890;13.714;2023-02-15T00:13:42;102451.06;;;-0.56;86.53
77159;BME280;66129;45.890;13.714;2023-02-15T00:16:12;102445.41;;;-0.54;86.80
77159;BME280;66129;45.890;13.714;2023-02-15T00:18:41;102493.91;;;-0.19;86.52
77159;BME280;66129;45.890;13.714;2023-02-15T00:21:09;102498.03;;;-0.20;86.91
77159;BME280;66129;45.890;13.714;2023-02-15T00:23:35;102498.41;;;-0.25;86.97
77159;BME280;66129;45.890;13.714;2023-02-15T00:26:08;102492.44;;;-0.26;86.91
77159;BME280;66129;45.890;13.714;2023-02-15T00:28:34;102504.03;;;-0.28;86.87
77159;BME280;66129;45.890;13.714;2023-02-15T00:31:10;102471.06;;;-0.58;88.58
77159;BME280;66129;45.890;13.714;2023-02-15T00:33:37;102492.78;;;-0.50;88.76
77159;BME280;66129;45.890;13.714;2023-02-15T00:36:04;102463.25;;;-0.61;87.98
77159;BME280;66129;45.890;13.714;2023-02-15T00:38:30;102491.75;;;-0.52;87.36
77159;BME280;66129;45.890;13.714;2023-02-15T00:40:58;102486.72;;;-0.52;88.14
77159;BME280;66129;45.890;13.714;2023-02-15T00:43:25;102488.78;;;-0.48;87.71
77159;BME280;66129;45.890;13.714;2023-02-15T00:45:51;102451.91;;;-0.74;88.82
77159;BME280;66129;45.890;13.714;2023-02-15T00:48:17;102489.50;;;-0.67;90.34
77159;BME280;66129;45.890;13.714;2023-02-15T00:50:49;102476.34;;;-0.73;90.27
77159;BME280;66129;45.890;13.714;2023-02-15T00:53:15;102461.41;;;-0.72;89.25
77159;BME280;66129;45.890;13.714;2023-02-15T00:55:41;102470.25;;;-0.67;87.00
77159;BME280;66129;45.890;13.714;2023-02-15T00:58:08;102469.06;;;-0.70;87.09
77159;BME280;66129;45.890;13.714;2023-02-15T01:00:34;102464.50;;;-0.74;87.74
77159;BME280;66129;45.890;13.714;2023-02-15T01:03:00;102418.84;;;-0.87;87.50
77159;BME280;66129;45.890;13.714;2023-02-15T01:05:25;102419.94;;;-0.94;87.96
77159;BME280;66129;45.890;13.714;2023-02-15T01:07:51;102457.22;;;-0.71;87.05
77159;BME280;66129;45.890;13.714;2023-02-15T01:10:17;102428.75;;;-0.89;86.21
77159;BME280;66129;45.890;13.714;2023-02-15T01:12:42;102449.69;;;-0.71;87.05
77159;BME280;66129;45.890;13.714;2023-02-15T01:15:09;102444.78;;;-0.70;87.68
77159;BME280;66129;45.890;13.714;2023-02-15T01:17:35;102444.97;;;-0.77;87.23
77159;BME280;66129;45.890;13.714;2023-02-15T01:20:00;102447.97;;;-0.81;87.66
77159;BME280;66129;45.890;13.714;2023-02-15T01:22:26;102446.34;;;-0.80;86.95
77159;BME280;66129;45.890;13.714;2023-02-15T01:24:52;102445.31;;;-0.82;86.22
77159;BME280;66129;45.890;13.714;2023-02-15T01:27:17;102438.81;;;-0.80;86.89
77159;BME280;66129;45.890;13.714;2023-02-15T01:29:43;102431.84;;;-0.83;87.14
77159;BME280;66129;45.890;13.714;2023-02-15T01:32:09;102430.41;;;-0.89;86.21
77159;BME280;66129;45.890;13.714;2023-02-15T01:34:34;102404.81;;;-1.12;86.07
77159;BME280;66129;45.890;13.714;2023-02-15T01:37:00;102439.03;;;-0.96;85.84
77159;BME280;66129;45.890;13.714;2023-02-15T01:39:25;102418.94;;;-1.04;87.21
77159;BME280;66129;45.890;13.714;2023-02-15T01:41:51;102408.84;;;-0.96;87.55
77159;BME280;66129;45.890;13.714;2023-02-15T01:47:17;102425.81;;;-0.66;86.79
77159;BME280;66129;45.890;13.714;2023-02-15T01:49:44;102382.47;;;-0.91;87.16
77159;BME280;66129;45.890;13.714;2023-02-15T01:52:14;102405.47;;;-0.78;87.56
77159;BME280;66129;45.890;13.714;2023-02-15T01:54:42;102398.66;;;-0.79;87.59
77159;BME280;66129;45.890;13.714;2023-02-15T01:57:18;102401.56;;;-0.74;87.74
77159;BME280;66129;45.890;13.714;2023-02-15T01:59:48;102400.72;;;-0.75;87.96
77159;BME280;66129;45.890;13.714;2023-02-15T02:02:16;102395.66;;;-0.75;87.62
77159;BME280;66129;45.890;13.714;2023-02-15T02:04:51;102398.94;;;-0.76;88.60
77159;BME280;66129;45.890;13.714;2023-02-15T02:07:20;102400.16;;;-0.81;89.68
77159;BME280;66129;45.890;13.714;2023-02-15T02:09:47;102388.66;;;-0.87;88.91
77159;BME280;66129;45.890;13.714;2023-02-15T02:12:14;102390.28;;;-0.88;88.27
77159;BME280;66129;45.890;13.714;2023-02-15T02:14:41;102348.72;;;-1.11;87.25
77159;BME280;66129;45.890;13.714;2023-02-15T02:28:22;102386.94;;;-0.97;86.36
77159;BME280;66129;45.890;13.714;2023-02-15T02:41:13;102382.47;;;-1.17;86.50
77159;BME280;66129;45.890;13.714;2023-02-15T02:46:26;102368.75;;;-1.21;86.39
77159;BME280;66129;45.890;13.714;2023-02-15T02:48:53;102385.31;;;-1.23;87.28
77159;BME280;66129;45.890;13.714;2023-02-15T02:51:19;102398.31;;;-1.18;87.24
77159;BME280;66129;45.890;13.714;2023-02-15T02:53:53;102397.31;;;-1.20;86.91
77159;BME280;66129;45.890;13.714;2023-02-15T02:56:28;102407.28;;;-1.30;87.42
77159;BME280;66129;45.890;13.714;2023-02-15T02:59:21;102398.41;;;-1.35;87.84
77159;BME280;66129;45.890;13.714;2023-02-15T03:02:14;102395.56;;;-1.30;87.82
77159;BME280;66129;45.890;13.714;2023-02-15T03:04:47;102363.84;;;-1.46;87.18
77159;BME280;66129;45.890;13.714;2023-02-15T03:07:21;102397.34;;;-1.29;87.69
77159;BME280;66129;45.890;13.714;2023-02-15T03:09:51;102401.63;;;-1.28;89.47
77159;BME280;66129;45.890;13.714;2023-02-15T03:12:24;102393.28;;;-1.18;88.79
77159;BME280;66129;45.890;13.714;2023-02-15T03:15:05;102340.75;;;-1.42;88.24
77159;BME280;66129;45.890;13.714;2023-02-15T03:17:35;102381.72;;;-1.16;90.22
77159;BME280;66129;45.890;13.714;2023-02-15T03:20:13;102378.63;;;-1.14;89.57
77159;BME280;66129;45.890;13.714;2023-02-15T03:22:48;102330.97;;;-1.39;89.01
77159;BME280;66129;45.890;13.714;2023-02-15T03:25:25;102371.19;;;-1.13;88.97
77159;BME280;66129;45.890;13.714;2023-02-15T03:27:56;102374.00;;;-1.10;88.67
77159;BME280;66129;45.890;13.714;2023-02-15T03:30:24;102373.44;;;-1.15;88.42
77159;BME280;66129;45.890;13.714;2023-02-15T03:32:52;102378.44;;;-1.07;88.69
77159;BME280;66129;45.890;13.714;2023-02-15T03:35:21;102381.41;;;-1.11;88.33
77159;BME280;66129;45.890;13.714;2023-02-15T03:37:53;102282.03;;;-1.61;88.30
77159;BME280;66129;45.890;13.714;2023-02-15T03:40:26;102370.47;;;-1.12;88.02
77159;BME280;66129;45.890;13.714;2023-02-15T03:45:57;102368.97;;;-1.10;88.70
77159;BME280;66129;45.890;13.714;2023-02-15T03:48:41;102341.88;;;-1.30;88.63
77159;BME280;66129;45.890;13.714;2023-02-15T03:51:12;102359.09;;;-1.16;88.55
77159;BME280;66129;45.890;13.714;2023-02-15T03:53:59;102339.56;;;-1.37;87.18
77159;BME280;66129;45.890;13.714;2023-02-15T03:56:26;102379.16;;;-1.26;87.60
77159;BME280;66129;45.890;13.714;2023-02-15T03:58:51;102362.00;;;-1.30;87.91
77159;BME280;66129;45.890;13.714;2023-02-15T04:01:44;102372.91;;;-1.21;88.06
77159;BME280;66129;45.890;13.714;2023-02-15T04:04:28;102372.00;;;-1.22;88.13
77159;BME280;66129;45.890;13.714;2023-02-15T04:06:56;102380.28;;;-1.23;87.65
77159;BME280;66129;45.890;13.714;2023-02-15T04:09:21;102352.13;;;-1.37;87.48
77159;BME280;66129;45.890;13.714;2023-02-15T04:12:06;102324.25;;;-1.49;86.75
77159;BME280;66129;45.890;13.714;2023-02-15T04:14:31;102364.06;;;-1.35;87.34
77159;BME280;66129;45.890;13.714;2023-02-15T04:17:15;102371.03;;;-1.32;87.65
77159;BME280;66129;45.890;13.714;2023-02-15T04:19:41;102331.78;;;-1.49;87.84
77159;BME280;66129;45.890;13.714;2023-02-15T04:22:25;102326.88;;;-1.47;88.35
77159;BME280;66129;45.890;13.714;2023-02-15T04:25:09;102367.50;;;-1.34;87.97
77159;BME280;66129;45.890;13.714;2023-02-15T04:27:35;102360.97;;;-1.32;88.68
77159;BME280;66129;45.890;13.714;2023-02-15T04:30:00;102358.28;;;-1.25;88.26
77159;BME280;66129;45.890;13.714;2023-02-15T04:32:26;102347.66;;;-1.31;87.92
77159;BME280;66129;45.890;13.714;2023-02-15T04:34:52;102341.78;;;-1.40;87.14
77159;BME280;66129;45.890;13.714;2023-02-15T04:37:18;102354.78;;;-1.36;86.93
77159;BME280;66129;45.890;13.714;2023-02-15T04:39:43;102339.28;;;-1.40;87.33
77159;BME280;66129;45.890;13.714;2023-02-15T04:42:09;102366.09;;;-1.22;86.56
77159;BME280;66129;45.890;13.714;2023-02-15T04:44:34;102373.22;;;-1.27;86.50
77159;BME280;66129;45.890;13.714;2023-02-15T04:47:00;102371.13;;;-1.22;86.54
77159;BME280;66129;45.890;13.714;2023-02-15T04:49:25;102333.97;;;-1.43;86.34
77159;BME280;66129;45.890;13.714;2023-02-15T04:51:51;102345.84;;;-1.51;86.42
77159;BME280;66129;45.890;13.714;2023-02-15T04:54:16;102364.88;;;-1.44;86.85
77159;BME280;66129;45.890;13.714;2023-02-15T04:56:42;102369.03;;;-1.45;86.40
77159;BME280;66129;45.890;13.714;2023-02-15T04:59:11;102367.84;;;-1.48;87.09
77159;BME280;66129;45.890;13.714;2023-02-15T05:01:37;102341.31;;;-1.63;87.25
77159;BME280;66129;45.890;13.714;2023-02-15T05:04:03;102367.84;;;-1.48;87.52
77159;BME280;66129;45.890;13.714;2023-02-15T05:06:29;102358.13;;;-1.54;88.04
77159;BME280;66129;45.890;13.714;2023-02-15T05:08:54;102362.75;;;-1.58;87.55
77159;BME280;66129;45.890;13.714;2023-02-15T05:11:20;102362.59;;;-1.60;88.91
77159;BME280;66129;45.890;13.714;2023-02-15T05:13:46;102363.31;;;-1.61;88.63
77159;BME280;66129;45.890;13.714;2023-02-15T05:16:11;102317.88;;;-1.81;87.87
77159;BME280;66129;45.890;13.714;2023-02-15T05:18:37;102355.50;;;-1.64;87.48
77159;BME280;66129;45.890;13.714;2023-02-15T05:21:02;102317.19;;;-1.88;87.67
77159;BME280;66129;45.890;13.714;2023-02-15T05:23:28;102345.38;;;-1.74;87.27
77159;BME280;66129;45.890;13.714;2023-02-15T05:25:53;102346.56;;;-1.79;87.82
77159;BME280;66129;45.890;13.714;2023-02-15T05:28:38;102356.69;;;-1.60;87.25
77159;BME280;66129;45.890;13.714;2023-02-15T05:31:09;102361.56;;;-1.62;87.10
77159;BME280;66129;45.890;13.714;2023-02-15T05:33:36;102335.16;;;-1.75;87.27
77159;BME280;66129;45.890;13.714;2023-02-15T05:36:02;102366.13;;;-1.58;86.93
77159;BME280;66129;45.890;13.714;2023-02-15T05:38:28;102360.97;;;-1.59;86.47
77159;BME280;66129;45.890;13.714;2023-02-15T05:40:54;102370.41;;;-1.57;86.58
77159;BME280;66129;45.890;13.714;2023-02-15T05:43:19;102342.56;;;-1.77;87.15
77159;BME280;66129;45.890;13.714;2023-02-15T05:45:49;102340.19;;;-1.75;87.30
77159;BME280;66129;45.890;13.714;2023-02-15T05:48:17;102363.78;;;-1.56;88.60
77159;BME280;66129;45.890;13.714;2023-02-15T05:50:43;102344.44;;;-1.66;88.90
77159;BME280;66129;45.890;13.714;2023-02-15T05:53:09;102348.13;;;-1.62;88.57
77159;BME280;66129;45.890;13.714;2023-02-15T05:55:40;102360.22;;;-1.58;88.41
77159;BME280;66129;45.890;13.714;2023-02-15T05:58:07;102374.09;;;-1.53;88.27
77159;BME280;66129;45.890;13.714;2023-02-15T06:00:34;102381.50;;;-1.55;87.71
77159;BME280;66129;45.890;13.714;2023-02-15T06:02:59;102323.03;;;-1.79;87.08
77159;BME280;66129;45.890;13.714;2023-02-15T06:05:25;102354.81;;;-1.71;86.98
77159;BME280;66129;45.890;13.714;2023-02-15T06:07:51;102378.00;;;-1.65;87.63
77159;BME280;66129;45.890;13.714;2023-02-15T06:10:16;102354.25;;;-1.86;86.99
77159;BME280;66129;45.890;13.714;2023-02-15T06:12:43;102382.44;;;-1.71;87.82
77159;BME280;66129;45.890;13.714;2023-02-15T06:15:09;102379.09;;;-1.80;87.72
77159;BME280;66129;45.890;13.714;2023-02-15T06:17:34;102402.88;;;-1.77;88.30
77159;BME280;66129;45.890;13.714;2023-02-15T06:20:00;102390.50;;;-1.92;88.52
77159;BME280;66129;45.890;13.714;2023-02-15T06:22:25;102399.94;;;-1.81;88.51
77159;BME280;66129;45.890;13.714;2023-02-15T06:24:51;102400.34;;;-1.77;87.64
77159;BME280;66129;45.890;13.714;2023-02-15T06:27:17;102402.25;;;-1.74;87.48
77159;BME280;66129;45.890;13.714;2023-02-15T06:29:43;102383.91;;;-1.73;87.83
77159;BME280;66129;45.890;13.714;2023-02-15T06:32:09;102379.88;;;-1.63;88.21
77159;BME280;66129;45.890;13.714;2023-02-15T06:34:34;102408.56;;;-1.52;88.22
77159;BME280;66129;45.890;13.714;2023-02-15T06:37:00;102391.91;;;-1.69;87.88
77159;BME280;66129;45.890;13.714;2023-02-15T06:39:25;102366.53;;;-1.89;87.85
77159;BME280;66129;45.890;13.714;2023-02-15T06:41:51;102400.66;;;-1.74;88.13
77159;BME280;66129;45.890;13.714;2023-02-15T06:44:16;102387.66;;;-1.87;88.08
77159;BME280;66129;45.890;13.714;2023-02-15T06:46:42;102386.47;;;-1.82;87.62
77159;BME280;66129;45.890;13.714;2023-02-15T06:49:10;102411.72;;;-1.72;88.46
77159;BME280;66129;45.890;13.714;2023-02-15T06:51:36;102395.34;;;-1.77;89.42
77159;BME280;66129;45.890;13.714;2023-02-15T06:54:01;102400.72;;;-1.55;88.99
77159;BME280;66129;45.890;13.714;2023-02-15T06:56:27;102394.22;;;-1.53;88.38
77159;BME280;66129;45.890;13.714;2023-02-15T06:58:52;102426.47;;;-1.31;89.02
77159;BME280;66129;45.890;13.714;2023-02-15T07:01:18;102408.00;;;-1.31;88.62
77159;BME280;66129;45.890;13.714;2023-02-15T07:03:44;102416.91;;;-1.08;89.04
77159;BME280;66129;45.890;13.714;2023-02-15T07:06:10;102408.22;;;-0.93;88.77
77159;BME280;66129;45.890;13.714;2023-02-15T07:08:37;102411.41;;;-0.77;89.41
77159;BME280;66129;45.890;13.714;2023-02-15T07:11:04;102399.84;;;-0.75;88.63
77159;BME280;66129;45.890;13.714;2023-02-15T07:13:49;102412.75;;;-0.62;89.90
77159;BME280;66129;45.890;13.714;2023-02-15T07:16:14;102411.19;;;-0.52;89.03
77159;BME280;66129;45.890;13.714;2023-02-15T07:18:40;102414.81;;;-0.40;88.79
77159;BME280;66129;45.890;13.714;2023-02-15T07:21:06;102404.53;;;-0.33;88.30
77159;BME280;66129;45.890;13.714;2023-02-15T07:23:38;102411.63;;;-0.19;88.87
77159;BME280;66129;45.890;13.714;2023-02-15T07:26:05;102383.53;;;-0.23;88.60
77159;BME280;66129;45.890;13.714;2023-02-15T07:28:34;102404.97;;;0.10;88.11
77159;BME280;66129;45.890;13.714;2023-02-15T07:31:03;102408.69;;;0.72;87.37
77159;BME280;66129;45.890;13.714;2023-02-15T07:33:30;102377.38;;;1.91;82.88
77159;BME280;66129;45.890;13.714;2023-02-15T07:35:58;102375.88;;;3.11;76.95
77159;BME280;66129;45.890;13.714;2023-02-15T07:38:30;102377.47;;;4.12;73.15
77159;BME280;66129;45.890;13.714;2023-02-15T07:40:59;102382.91;;;4.65;69.71
77159;BME280;66129;45.890;13.714;2023-02-15T07:43:26;102390.06;;;5.96;66.73
77159;BME280;66129;45.890;13.714;2023-02-15T07:45:51;102389.69;;;6.98;63.17
77159;BME280;66129;45.890;13.714;2023-02-15T07:48:16;102384.56;;;7.68;64.08
77159;BME280;66129;45.890;13.714;2023-02-15T07:50:42;102396.84;;;8.35;57.25
77159;BME280;66129;45.890;13.714;2023-02-15T07:53:08;102386.50;;;8.95;55.55
77159;BME280;66129;45.890;13.714;2023-02-15T07:55:33;102396.22;;;9.34;56.71
77159;BME280;66129;45.890;13.714;2023-02-15T07:57:59;102388.66;;;9.71;54.85
77159;BME280;66129;45.890;13.714;2023-02-15T08:00:24;102391.56;;;9.78;52.31
77159;BME280;66129;45.890;13.714;2023-02-15T08:02:52;102394.31;;;10.33;52.90
77159;BME280;66129;45.890;13.714;2023-02-15T08:05:49;102365.31;;;10.91;49.09
77159;BME280;66129;45.890;13.714;2023-02-15T08:08:18;102392.53;;;11.65;47.48
77159;BME280;66129;45.890;13.714;2023-02-15T08:11:00;102371.06;;;11.64;49.49
77159;BME280;66129;45.890;13.714;2023-02-15T08:13:45;102381.78;;;12.17;46.35
77159;BME280;66129;45.890;13.714;2023-02-15T08:16:28;102388.63;;;11.74;46.98
77159;BME280;66129;45.890;13.714;2023-02-15T08:18:55;102379.28;;;12.18;47.39
77159;BME280;66129;45.890;13.714;2023-02-15T08:21:21;102382.16;;;12.71;46.90
77159;BME280;66129;45.890;13.714;2023-02-15T08:23:47;102382.78;;;12.42;45.88
77159;BME280;66129;45.890;13.714;2023-02-15T08:26:13;102365.28;;;13.01;45.51
77159;BME280;66129;45.890;13.714;2023-02-15T08:28:40;102367.28;;;13.10;46.89
77159;BME280;66129;45.890;13.714;2023-02-15T08:31:11;102354.97;;;13.51;43.43
77159;BME280;66129;45.890;13.714;2023-02-15T08:33:38;102343.97;;;13.30;44.32
77159;BME280;66129;45.890;13.714;2023-02-15T08:36:16;102374.38;;;14.18;44.71
77159;BME280;66129;45.890;13.714;2023-02-15T08:38:42;102367.41;;;14.43;44.79
77159;BME280;66129;45.890;13.714;2023-02-15T08:41:19;102380.06;;;15.56;41.79
77159;BME280;66129;45.890;13.714;2023-02-15T08:43:47;102371.81;;;15.06;40.85
77159;BME280;66129;45.890;13.714;2023-02-15T08:46:14;102362.56;;;14.53;42.32
77159;BME280;66129;45.890;13.714;2023-02-15T08:48:40;102372.75;;;13.95;44.21
77159;BME280;66129;45.890;13.714;2023-02-15T08:51:09;102354.63;;;14.18;43.90
77159;BME280;66129;45.890;13.714;2023-02-15T08:53:39;102365.00;;;13.42;45.84
77159;BME280;66129;45.890;13.714;2023-02-15T08:56:05;102358.97;;;13.17;47.31
77159;BME280;66129;45.890;13.714;2023-02-15T08:58:31;102353.16;;;14.55;45.30
77159;BME280;66129;45.890;13.714;2023-02-15T09:00:57;102369.19;;;15.35;42.58
77159;BME280;66129;45.890;13.714;2023-02-15T09:03:22;102362.66;;;16.21;41.07
77159;BME280;66129;45.890;13.714;2023-02-15T09:05:48;102362.31;;;16.42;38.73
77159;BME280;66129;45.890;13.714;2023-02-15T09:08:14;102369.50;;;16.99;38.14
77159;BME280;66129;45.890;13.714;2023-02-15T09:10:40;102348.06;;;17.06;38.13
77159;BME280;66129;45.890;13.714;2023-02-15T09:13:05;102365.09;;;17.38;37.62
77159;BME280;66129;45.890;13.714;2023-02-15T09:15:31;102365.97;;;17.90;36.18
77159;BME280;66129;45.890;13.714;2023-02-15T09:17:56;102366.81;;;18.47;34.68
77159;BME280;66129;45.890;13.714;2023-02-15T09:20:24;102340.59;;;18.26;35.25
77159;BME280;66129;45.890;13.714;2023-02-15T09:22:51;102369.25;;;19.03;33.52
77159;BME280;66129;45.890;13.714;2023-02-15T09:25:17;102345.47;;;18.72;32.90
77159;BME280;66129;45.890;13.714;2023-02-15T09:27:43;102366.47;;;18.87;32.64
77159;BME280;66129;45.890;13.714;2023-02-15T09:30:08;102351.66;;;18.80;33.06
77159;BME280;66129;45.890;13.714;2023-02-15T09:32:34;102312.16;;;18.38;32.13
77159;BME280;66129;45.890;13.714;2023-02-15T09:34:59;102342.06;;;18.77;31.58
77159;BME280;66129;45.890;13.714;2023-02-15T09:37:25;102337.22;;;19.10;31.63
77159;BME280;66129;45.890;13.714;2023-02-15T09:39:51;102361.75;;;19.31;31.81
77159;BME280;66129;45.890;13.714;2023-02-15T09:42:40;102349.78;;;19.50;31.14
77159;BME280;66129;45.890;13.714;2023-02-15T09:45:56;102350.22;;;19.99;30.94
77159;BME280;66129;45.890;13.714;2023-02-15T09:51:23;102350.97;;;19.89;31.27
77159;BME280;66129;45.890;13.714;2023-02-15T09:54:06;102344.00;;;19.88;30.16
77159;BME280;66129;45.890;13.714;2023-02-15T09:59:21;102340.06;;;20.50;30.52
77159;BME280;66129;45.890;13.714;2023-02-15T10:05:02;102336.41;;;20.14;30.38
77159;BME280;66129;45.890;13.714;2023-02-15T10:13:04;102330.72;;;21.12;30.66
77159;BME280;66129;45.890;13.714;2023-02-15T10:21:41;102320.28;;;21.88;29.39
77159;BME280;66129;45.890;13.714;2023-02-15T10:24:30;102320.25;;;22.16;29.06
77159;BME280;66129;45.890;13.714;2023-02-15T10:27:12;102302.69;;;22.51;27.23
77159;BME280;66129;45.890;13.714;2023-02-15T10:29:48;102313.19;;;22.33;27.18
77159;BME280;66129;45.890;13.714;2023-02-15T10:32:25;102321.69;;;22.86;25.88
77159;BME280;66129;45.890;13.714;2023-02-15T10:38:00;102312.91;;;22.99;25.82
77159;BME280;66129;45.890;13.714;2023-02-15T10:40:51;102299.06;;;22.79;23.25
77159;BME280;66129;45.890;13.714;2023-02-15T10:54:36;102277.84;;;23.24;22.27
77159;BME280;66129;45.890;13.714;2023-02-15T11:08:09;102266.81;;;23.85;19.59
77159;BME280;66129;45.890;13.714;2023-02-15T11:10:53;102262.38;;;23.91;20.81
77159;BME280;66129;45.890;13.714;2023-02-15T11:13:23;102272.47;;;24.24;19.72
77159;BME280;66129;45.890;13.714;2023-02-15T11:15:53;102262.09;;;24.14;19.70
77159;BME280;66129;45.890;13.714;2023-02-15T11:18:25;102268.13;;;24.22;19.65
77159;BME280;66129;45.890;13.714;2023-02-15T11:21:19;102265.16;;;24.50;20.54
77159;BME280;66129;45.890;13.714;2023-02-15T11:23:47;102256.19;;;24.66;18.80
77159;BME280;66129;45.890;13.714;2023-02-15T11:26:17;102246.63;;;24.62;18.44
77159;BME280;66129;45.890;13.714;2023-02-15T11:28:52;102228.00;;;24.78;19.34
77159;BME280;66129;45.890;13.714;2023-02-15T11:31:22;102252.31;;;24.91;19.16
77159;BME280;66129;45.890;13.714;2023-02-15T11:34:04;102246.16;;;25.46;19.92
77159;BME280;66129;45.890;13.714;2023-02-15T11:36:38;102242.44;;;25.08;18.87
77159;BME280;66129;45.890;13.714;2023-02-15T11:39:11;102238.16;;;25.02;18.59
77159;BME280;66129;45.890;13.714;2023-02-15T11:41:55;102241.88;;;24.88;19.53
77159;BME280;66129;45.890;13.714;2023-02-15T11:44:50;102238.81;;;25.18;19.03
77159;BME280;66129;45.890;13.714;2023-02-15T11:47:19;102212.09;;;25.89;19.31
77159;BME280;66129;45.890;13.714;2023-02-15T11:49:45;102235.53;;;25.52;19.41
77159;BME280;66129;45.890;13.714;2023-02-15T11:52:13;102224.06;;;25.58;20.11
77159;BME280;66129;45.890;13.714;2023-02-15T11:54:45;102235.00;;;25.34;19.91
77159;BME280;66129;45.890;13.714;2023-02-15T11:59:45;102211.16;;;24.34;21.48
77159;BME280;66129;45.890;13.714;2023-02-15T12:02:18;102200.03;;;24.17;21.26
77159;BME280;66129;45.890;13.714;2023-02-15T12:04:49;102197.88;;;24.48;20.01
77159;BME280;66129;45.890;13.714;2023-02-15T12:07:37;102217.81;;;24.59;20.97
77159;BME280;66129;45.890;13.714;2023-02-15T12:12:42;102198.34;;;24.75;19.89
77159;BME280;66129;45.890;13.714;2023-02-15T12:15:09;102209.66;;;24.78;19.88
77159;BME280;66129;45.890;13.714;2023-02-15T12:17:48;102181.38;;;24.40;19.76
77159;BME280;66129;45.890;13.714;2023-02-15T12:23:12;102201.94;;;24.08;21.43
77159;BME280;66129;45.890;13.714;2023-02-15T12:28:05;102198.78;;;23.74;20.67
77159;BME280;66129;45.890;13.714;2023-02-15T12:30:42;102182.47;;;23.52;20.36
77159;BME280;66129;45.890;13.714;2023-02-15T12:33:27;102173.63;;;23.63;21.68
77159;BME280;66129;45.890;13.714;2023-02-15T12:36:19;102186.81;;;23.53;20.96
77159;BME280;66129;45.890;13.714;2023-02-15T12:41:31;102172.69;;;23.68;20.33
77159;BME280;66129;45.890;13.714;2023-02-15T12:44:17;102152.13;;;23.36;19.97
77159;BME280;66129;45.890;13.714;2023-02-15T12:47:02;102182.91;;;23.05;19.81
77159;BME280;66129;45.890;13.714;2023-02-15T12:49:38;102168.09;;;23.09;20.37
77159;BME280;66129;45.890;13.714;2023-02-15T12:54:46;102170.78;;;22.95;21.05
77159;BME280;66129;45.890;13.714;2023-02-15T12:57:32;102165.63;;;22.89;22.08
77159;BME280;66129;45.890;13.714;2023-02-15T13:02:56;102161.31;;;22.81;22.04
77159;BME280;66129;45.890;13.714;2023-02-15T13:05:33;102146.69;;;22.56;21.99
77159;BME280;66129;45.890;13.714;2023-02-15T13:13:29;102151.03;;;22.60;23.78
77159;BME280;66129;45.890;13.714;2023-02-15T13:16:00;102141.25;;;22.80;23.17
77159;BME280;66129;45.890;13.714;2023-02-15T13:21:24;102132.88;;;22.42;23.59
77159;BME280;66129;45.890;13.714;2023-02-15T13:24:00;102128.53;;;22.32;23.32
77159;BME280;66129;45.890;13.714;2023-02-15T13:26:30;102132.03;;;22.37;22.50
77159;BME280;66129;45.890;13.714;2023-02-15T13:28:59;102129.41;;;22.36;23.59
77159;BME280;66129;45.890;13.714;2023-02-15T13:31:30;102118.16;;;22.20;23.79
77159;BME280;66129;45.890;13.714;2023-02-15T13:34:03;102126.91;;;22.15;23.78
77159;BME280;66129;45.890;13.714;2023-02-15T13:39:49;102107.97;;;21.78;23.11
77159;BME280;66129;45.890;13.714;2023-02-15T13:42:27;102101.03;;;21.74;22.60
77159;BME280;66129;45.890;13.714;2023-02-15T13:55:53;102118.53;;;21.36;24.07
77159;BME280;66129;45.890;13.714;2023-02-15T14:07:10;102101.25;;;20.91;26.18
77159;BME280;66129;45.890;13.714;2023-02-15T14:10:21;102115.09;;;20.72;24.55
77159;BME280;66129;45.890;13.714;2023-02-15T14:15:47;102059.50;;;20.01;24.45
77159;BME280;66129;45.890;13.714;2023-02-15T14:29:20;102114.38;;;18.90;30.91
77159;BME280;66129;45.890;13.714;2023-02-15T14:31:55;102111.56;;;18.61;30.79
77159;BME280;66129;45.890;13.714;2023-02-15T14:34:48;102116.63;;;18.43;31.16
77159;BME280;66129;45.890;13.714;2023-02-15T14:37:22;102106.09;;;18.31;31.98
77159;BME280;66129;45.890;13.714;2023-02-15T14:40:01;102124.28;;;18.33;33.19
77159;BME280;66129;45.890;13.714;2023-02-15T14:42:57;102114.69;;;18.24;33.47
77159;BME280;66129;45.890;13.714;2023-02-15T14:48:31;102111.78;;;17.97;34.67
77159;BME280;66129;45.890;13.714;2023-02-15T14:50:57;102096.94;;;17.86;34.94
77159;BME280;66129;45.890;13.714;2023-02-15T14:53:34;102106.41;;;17.81;33.88
77159;BME280;66129;45.890;13.714;2023-02-15T14:56:18;102118.44;;;17.76;34.57
77159;BME280;66129;45.890;13.714;2023-02-15T15:01:36;102097.31;;;17.46;34.62
77159;BME280;66129;45.890;13.714;2023-02-15T15:04:34;102101.50;;;17.37;35.33
77159;BME280;66129;45.890;13.714;2023-02-15T15:07:20;102117.13;;;17.40;35.86
77159;BME280;66129;45.890;13.714;2023-02-15T15:12:56;102105.34;;;17.03;35.44
77159;BME280;66129;45.890;13.714;2023-02-15T15:25:45;102121.53;;;16.40;38.37
77159;BME280;66129;45.890;13.714;2023-02-15T15:49:58;102134.16;;;15.04;40.26
77159;BME280;66129;45.890;13.714;2023-02-15T15:52:24;102143.97;;;14.83;40.82
77159;BME280;66129;45.890;13.714;2023-02-15T15:55:04;102142.50;;;14.59;40.74
77159;BME280;66129;45.890;13.714;2023-02-15T15:57:43;102149.78;;;14.41;41.19
77159;BME280;66129;45.890;13.714;2023-02-15T16:02:57;102159.69;;;13.97;42.41